sensor_id;sensor_type;location;lat;lon;timestamp;pressure;altitude;pressure_sealevel;temperature;humidity
10881;BME280;5493;48.884;8.338;2023-12-22T00:01:59;99128.03;;;9.85;100.00
10881;BME280;5493;48.884;8.338;2023-12-22T00:04:26;99144.66;;;9.99;100.00
10881;BME280;5493;48.884;8.338;2023-12-22T00:06:52;99141.09;;;10.10;100.00
10881;BME280;5493;48.884;8.338;2023-12-22T00:09:20;99150.38;;;10.02;100.00
10881;BME280;5493;48.884;8.338;2023-12-22T00:11:46;99167.47;;;10.08;100.00
10881;BME280;5493;48.884;8.338;2023-12-22T00:14:13;99165.41;;;9.98;100.00
10881;BME280;5493;48.884;8.338;2023-12-22T00:16:39;99160.09;;;9.86;100.00
10881;BME280;5493;48.884;8.338;2023-12-22T00:19:07;99177.88;;;10.16;100.00
10881;BME280;5493;48.884;8.338;2023-12-22T00:21:34;99168.16;;;10.31;100.00
10881;BME280;5493;48.884;8.338;2023-12-22T00:24:00;99165.09;;;10.11;100.00
10881;BME280;5493;48.884;8.338;2023-12-22T00:26:27;99178.34;;;10.13;100.00
10881;BME280;5493;48.884;8.338;2023-12-22T00:28:53;99199.28;;;10.11;100.00
10881;BME280;5493;48.884;8.338;2023-12-22T00:31:20;99201.13;;;10.22;100.00
10881;BME280;5493;48.884;8.338;2023-12-22T00:33:46;99211.28;;;10.03;100.00
10881;BME280;5493;48.884;8.338;2023-12-22T00:36:14;99207.50;;;10.32;100.00
10881;BME280;5493;48.884;8.338;2023-12-22T00:38:41;99196.59;;;10.11;100.00
10881;BME280;5493;48.884;8.338;2023-12-22T00:41:07;99205.22;;;10.24;100.00
10881;BME280;5493;48.884;8.338;2023-12-22T00:43:34;99202.78;;;10.23;100.00
10881;BME280;5493;48.884;8.338;2023-12-22T00:46:00;99170.03;;;10.31;100.00
10881;BME280;5493;48.884;8.338;2023-12-22T00:48:27;99176.88;;;10.22;100.00
10881;BME280;5493;48.884;8.338;2023-12-22T00:50:53;99153.13;;;10.35;100.00
10881;BME280;5493;48.884;8.338;2023-12-22T00:53:21;99148.28;;;10.04;100.00
10881;BME280;5493;48.884;8.338;2023-12-22T00:55:48;99164.03;;;10.12;100.00
10881;BME280;5493;48.884;8.338;2023-12-22T00:58:14;99170.94;;;10.20;100.00
10881;BME280;5493;48.884;8.338;2023-12-22T01:00:41;99170.13;;;10.19;100.00
10881;BME280;5493;48.884;8.338;2023-12-22T01:03:07;99160.00;;;10.26;100.00
10881;BME280;5493;48.884;8.338;2023-12-22T01:05:34;99167.00;;;10.27;100.00
10881;BME280;5493;48.884;8.338;2023-12-22T01:08:00;99168.47;;;10.18;100.00
10881;BME280;5493;48.884;8.338;2023-12-22T01:10:28;99176.88;;;10.38;100.00
10881;BME280;5493;48.884;8.338;2023-12-22T01:12:54;99178.56;;;10.11;100.00
10881;BME280;5493;48.884;8.338;2023-12-22T01:15:21;99168.91;;;9.99;100.00
10881;BME280;5493;48.884;8.338;2023-12-22T01:17:48;99187.38;;;10.07;100.00
10881;BME280;5493;48.884;8.338;2023-12-22T01:20:14;99210.91;;;9.83;100.00
10881;BME280;5493;48.884;8.338;2023-12-22T01:22:41;99206.88;;;9.97;100.00
10881;BME280;5493;48.884;8.338;2023-12-22T01:25:07;99215.38;;;9.77;100.00
10881;BME280;5493;48.884;8.338;2023-12-22T01:27:35;99225.75;;;9.85;100.00
10881;BME280;5493;48.884;8.338;2023-12-22T01:30:02;99227.81;;;9.67;100.00
10881;BME280;5493;48.884;8.338;2023-12-22T01:32:28;99238.56;;;9.67;100.00
10881;BME280;5493;48.884;8.338;2023-12-22T01:34:59;99246.75;;;9.72;100.00
10881;BME280;5493;48.884;8.338;2023-12-22T01:37:28;99263.91;;;9.54;100.00
10881;BME280;5493;48.884;8.338;2023-12-22T01:39:55;99280.19;;;9.48;100.00
10881;BME280;5493;48.884;8.338;2023-12-22T01:42:21;99285.66;;;9.53;100.00
10881;BME280;5493;48.884;8.338;2023-12-22T01:44:49;99287.78;;;9.27;100.00
10881;BME280;5493;48.884;8.338;2023-12-22T01:47:16;99278.75;;;9.45;100.00
10881;BME280;5493;48.884;8.338;2023-12-22T01:49:48;99262.97;;;9.49;100.00
10881;BME280;5493;48.884;8.338;2023-12-22T01:52:16;99286.59;;;9.47;100.00
10881;BME280;5493;48.884;8.338;2023-12-22T01:54:43;99283.66;;;9.48;100.00
10881;BME280;5493;48.884;8.338;2023-12-22T01:57:13;99277.97;;;9.33;100.00
10881;BME280;5493;48.884;8.338;2023-12-22T01:59:42;99265.66;;;9.37;100.00
10881;BME280;5493;48.884;8.338;2023-12-22T02:02:10;99265.91;;;9.35;100.00
10881;BME280;5493;48.884;8.338;2023-12-22T02:04:37;99278.06;;;9.50;100.00
10881;BME280;5493;48.884;8.338;2023-12-22T02:07:03;99270.94;;;9.44;100.00
10881;BME280;5493;48.884;8.338;2023-12-22T02:09:33;99264.59;;;9.50;100.00
10881;BME280;5493;48.884;8.338;2023-12-22T02:11:59;99257.69;;;9.54;100.00
10881;BME280;5493;48.884;8.338;2023-12-22T02:14:26;99237.56;;;9.56;100.00
10881;BME280;5493;48.884;8.338;2023-12-22T02:17:00;99261.28;;;9.59;100.00
10881;BME280;5493;48.884;8.338;2023-12-22T02:19:40;99262.72;;;9.50;100.00
10881;BME280;5493;48.884;8.338;2023-12-22T02:22:09;99265.34;;;9.73;100.00
10881;BME280;5493;48.884;8.338;2023-12-22T02:24:37;99255.34;;;9.57;100.00
10881;BME280;5493;48.884;8.338;2023-12-22T02:27:05;99254.19;;;9.53;100.00
10881;BME280;5493;48.884;8.338;2023-12-22T02:29:36;99248.53;;;9.66;100.00
10881;BME280;5493;48.884;8.338;2023-12-22T02:32:07;99254.88;;;9.60;100.00
10881;BME280;5493;48.884;8.338;2023-12-22T02:34:35;99259.06;;;9.68;100.00
10881;BME280;5493;48.884;8.338;2023-12-22T02:37:05;99258.38;;;9.61;100.00
10881;BME280;5493;48.884;8.338;2023-12-22T02:39:33;99262.91;;;9.72;100.00
10881;BME280;5493;48.884;8.338;2023-12-22T02:42:02;99251.59;;;9.58;100.00
10881;BME280;5493;48.884;8.338;2023-12-22T02:44:29;99265.59;;;9.72;100.00
10881;BME280;5493;48.884;8.338;2023-12-22T02:46:55;99255.78;;;9.66;100.00
10881;BME280;5493;48.884;8.338;2023-12-22T02:49:22;99256.88;;;9.53;100.00
10881;BME280;5493;48.884;8.338;2023-12-22T02:51:48;99265.50;;;9.55;100.00
10881;BME280;5493;48.884;8.338;2023-12-22T02:54:15;99246.38;;;9.80;100.00
10881;BME280;5493;48.884;8.338;2023-12-22T02:56:41;99256.06;;;9.81;100.00
10881;BME280;5493;48.884;8.338;2023-12-22T02:59:10;99256.16;;;9.69;100.00
10881;BME280;5493;48.884;8.338;2023-12-22T03:01:36;99256.16;;;9.69;100.00
10881;BME280;5493;48.884;8.338;2023-12-22T03:04:03;99253.44;;;9.69;100.00
10881;BME280;5493;48.884;8.338;2023-12-22T03:06:29;99260.81;;;9.62;100.00
10881;BME280;5493;48.884;8.338;2023-12-22T03:08:56;99264.94;;;9.65;100.00
10881;BME280;5493;48.884;8.338;2023-12-22T03:11:22;99272.78;;;9.55;100.00
10881;BME280;5493;48.884;8.338;2023-12-22T03:13:49;99255.72;;;9.37;100.00
10881;BME280;5493;48.884;8.338;2023-12-22T03:16:16;99279.09;;;9.60;100.00
10881;BME280;5493;48.884;8.338;2023-12-22T03:18:43;99279.78;;;9.56;100.00
10881;BME280;5493;48.884;8.338;2023-12-22T03:21:16;99273.50;;;9.50;100.00
10881;BME280;5493;48.884;8.338;2023-12-22T03:23:42;99272.31;;;9.58;100.00
10881;BME280;5493;48.884;8.338;2023-12-22T03:26:09;99255.22;;;9.52;100.00
10881;BME280;5493;48.884;8.338;2023-12-22T03:28:35;99245.00;;;9.66;100.00
10881;BME280;5493;48.884;8.338;2023-12-22T03:31:02;99255.03;;;9.42;100.00
10881;BME280;5493;48.884;8.338;2023-12-22T03:33:30;99253.44;;;9.29;100.00
10881;BME280;5493;48.884;8.338;2023-12-22T03:35:57;99259.44;;;9.48;100.00
10881;BME280;5493;48.884;8.338;2023-12-22T03:38:23;99249.72;;;9.07;100.00
10881;BME280;5493;48.884;8.338;2023-12-22T03:40:49;99235.31;;;9.25;100.00
10881;BME280;5493;48.884;8.338;2023-12-22T03:43:16;99262.69;;;9.22;100.00
10881;BME280;5493;48.884;8.338;2023-12-22T03:45:42;99269.78;;;9.28;100.00
10881;BME280;5493;48.884;8.338;2023-12-22T03:48:09;99276.47;;;9.25;100.00
10881;BME280;5493;48.884;8.338;2023-12-22T03:50:37;99278.91;;;9.15;100.00
10881;BME280;5493;48.884;8.338;2023-12-22T03:53:03;99275.16;;;9.05;100.00
10881;BME280;5493;48.884;8.338;2023-12-22T03:55:29;99288.38;;;9.29;100.00
10881;BME280;5493;48.884;8.338;2023-12-22T03:57:56;99313.88;;;9.04;100.00
10881;BME280;5493;48.884;8.338;2023-12-22T04:00:22;99323.22;;;8.89;100.00
10881;BME280;5493;48.884;8.338;2023-12-22T04:02:49;99323.94;;;8.97;100.00
10881;BME280;5493;48.884;8.338;2023-12-22T04:05:15;99322.03;;;8.74;100.00
10881;BME280;5493;48.884;8.338;2023-12-22T04:07:43;99332.44;;;8.94;100.00
10881;BME280;5493;48.884;8.338;2023-12-22T04:10:10;99326.22;;;8.70;100.00
10881;BME280;5493;48.884;8.338;2023-12-22T04:12:36;99308.22;;;8.59;100.00
10881;BME280;5493;48.884;8.338;2023-12-22T04:15:03;99304.34;;;8.55;100.00
10881;BME280;5493;48.884;8.338;2023-12-22T04:17:30;99324.22;;;8.65;100.00
10881;BME280;5493;48.884;8.338;2023-12-22T04:19:57;99325.66;;;8.68;100.00
10881;BME280;5493;48.884;8.338;2023-12-22T04:22:23;99317.13;;;8.71;100.00
10881;BME280;5493;48.884;8.338;2023-12-22T04:24:51;99289.88;;;8.56;100.00
10881;BME280;5493;48.884;8.338;2023-12-22T04:27:18;99291.50;;;8.57;100.00
10881;BME280;5493;48.884;8.338;2023-12-22T04:29:45;99313.34;;;8.60;100.00
10881;BME280;5493;48.884;8.338;2023-12-22T04:32:11;99299.69;;;8.73;100.00
10881;BME280;5493;48.884;8.338;2023-12-22T04:34:38;99314.41;;;8.59;100.00
10881;BME280;5493;48.884;8.338;2023-12-22T04:37:04;99303.31;;;8.67;100.00
10881;BME280;5493;48.884;8.338;2023-12-22T04:39:31;99301.31;;;8.63;100.00
10881;BME280;5493;48.884;8.338;2023-12-22T04:41:59;99317.22;;;8.76;100.00
10881;BME280;5493;48.884;8.338;2023-12-22T04:44:25;99318.97;;;8.70;100.00
10881;BME280;5493;48.884;8.338;2023-12-22T04:46:51;99323.19;;;8.78;100.00
10881;BME280;5493;48.884;8.338;2023-12-22T04:49:18;99330.34;;;8.96;100.00
10881;BME280;5493;48.884;8.338;2023-12-22T04:51:44;99322.16;;;8.79;100.00
10881;BME280;5493;48.884;8.338;2023-12-22T04:54:11;99342.28;;;9.00;100.00
10881;BME280;5493;48.884;8.338;2023-12-22T04:56:37;99338.56;;;9.01;100.00
10881;BME280;5493;48.884;8.338;2023-12-22T04:59:05;99330.09;;;8.97;100.00
10881;BME280;5493;48.884;8.338;2023-12-22T05:01:32;99335.03;;;9.12;100.00
10881;BME280;5493;48.884;8.338;2023-12-22T05:03:58;99318.31;;;9.10;100.00
10881;BME280;5493;48.884;8.338;2023-12-22T05:06:25;99317.03;;;9.24;100.00
10881;BME280;5493;48.884;8.338;2023-12-22T05:08:51;99319.25;;;9.27;100.00
10881;BME280;5493;48.884;8.338;2023-12-22T05:11:17;99326.97;;;9.35;100.00
10881;BME280;5493;48.884;8.338;2023-12-22T05:13:44;99299.50;;;9.10;100.00
10881;BME280;5493;48.884;8.338;2023-12-22T05:16:12;99326.50;;;9.26;100.00
10881;BME280;5493;48.884;8.338;2023-12-22T05:18:39;99319.47;;;9.37;100.00
10881;BME280;5493;48.884;8.338;2023-12-22T05:21:05;99333.88;;;9.43;100.00
10881;BME280;5493;48.884;8.338;2023-12-22T05:23:32;99346.84;;;9.46;100.00
10881;BME280;5493;48.884;8.338;2023-12-22T05:25:58;99337.94;;;9.33;100.00
10881;BME280;5493;48.884;8.338;2023-12-22T05:28:25;99313.78;;;9.22;100.00
10881;BME280;5493;48.884;8.338;2023-12-22T05:30:51;99314.00;;;9.32;100.00
10881;BME280;5493;48.884;8.338;2023-12-22T05:33:19;99306.88;;;9.26;100.00
10881;BME280;5493;48.884;8.338;2023-12-22T05:35:45;99334.09;;;9.41;100.00
10881;BME280;5493;48.884;8.338;2023-12-22T05:38:12;99380.06;;;9.39;100.00
10881;BME280;5493;48.884;8.338;2023-12-22T05:40:38;99374.31;;;9.59;100.00
10881;BME280;5493;48.884;8.338;2023-12-22T05:43:05;99385.69;;;9.50;100.00
10881;BME280;5493;48.884;8.338;2023-12-22T05:45:31;99385.56;;;9.45;100.00
10881;BME280;5493;48.884;8.338;2023-12-22T05:47:58;99390.72;;;9.46;100.00
10881;BME280;5493;48.884;8.338;2023-12-22T05:50:26;99401.56;;;9.74;100.00
10881;BME280;5493;48.884;8.338;2023-12-22T05:52:52;99380.28;;;9.61;100.00
10881;BME280;5493;48.884;8.338;2023-12-22T05:55:19;99368.09;;;9.59;100.00
10881;BME280;5493;48.884;8.338;2023-12-22T05:57:45;99378.88;;;9.70;100.00
10881;BME280;5493;48.884;8.338;2023-12-22T06:00:13;99387.63;;;9.66;100.00
10881;BME280;5493;48.884;8.338;2023-12-22T06:02:40;99407.78;;;9.75;100.00
10881;BME280;5493;48.884;8.338;2023-12-22T06:05:08;99397.56;;;9.77;100.00
10881;BME280;5493;48.884;8.338;2023-12-22T06:07:36;99398.75;;;9.81;100.00
10881;BME280;5493;48.884;8.338;2023-12-22T06:10:03;99381.47;;;9.65;100.00
10881;BME280;5493;48.884;8.338;2023-12-22T06:12:29;99377.59;;;9.61;100.00
10881;BME280;5493;48.884;8.338;2023-12-22T06:14:56;99347.06;;;9.56;100.00
10881;BME280;5493;48.884;8.338;2023-12-22T06:17:22;99404.94;;;9.81;100.00
10881;BME280;5493;48.884;8.338;2023-12-22T06:19:49;99395.72;;;9.66;100.00
10881;BME280;5493;48.884;8.338;2023-12-22T06:22:15;99395.13;;;9.40;100.00
10881;BME280;5493;48.884;8.338;2023-12-22T06:24:43;99414.91;;;9.46;100.00
10881;BME280;5493;48.884;8.338;2023-12-22T06:27:10;99428.72;;;9.50;100.00
10881;BME280;5493;48.884;8.338;2023-12-22T06:29:37;99424.28;;;9.55;100.00
10881;BME280;5493;48.884;8.338;2023-12-22T06:32:05;99423.94;;;9.63;100.00
10881;BME280;5493;48.884;8.338;2023-12-22T06:34:32;99426.16;;;9.43;100.00
10881;BME280;5493;48.884;8.338;2023-12-22T06:36:59;99421.59;;;9.44;100.00
10881;BME280;5493;48.884;8.338;2023-12-22T06:39:25;99421.69;;;9.37;100.00
10881;BME280;5493;48.884;8.338;2023-12-22T06:41:53;99417.94;;;9.38;100.00
10881;BME280;5493;48.884;8.338;2023-12-22T06:44:19;99418.28;;;9.30;100.00
10881;BME280;5493;48.884;8.338;2023-12-22T06:46:46;99415.59;;;9.18;100.00
10881;BME280;5493;48.884;8.338;2023-12-22T06:49:12;99411.84;;;9.08;100.00
10881;BME280;5493;48.884;8.338;2023-12-22T06:51:40;99438.16;;;9.17;100.00
10881;BME280;5493;48.884;8.338;2023-12-22T06:54:06;99429.53;;;9.38;100.00
10881;BME280;5493;48.884;8.338;2023-12-22T06:56:34;99428.13;;;9.24;100.00
10881;BME280;5493;48.884;8.338;2023-12-22T06:59:02;99433.47;;;9.13;100.00
10881;BME280;5493;48.884;8.338;2023-12-22T07:01:30;99443.06;;;9.20;100.00
10881;BME280;5493;48.884;8.338;2023-12-22T07:03:57;99436.59;;;8.98;100.00
10881;BME280;5493;48.884;8.338;2023-12-22T07:06:25;99445.00;;;9.02;100.00
10881;BME280;5493;48.884;8.338;2023-12-22T07:08:56;99434.25;;;9.02;100.00
10881;BME280;5493;48.884;8.338;2023-12-22T07:11:23;99427.84;;;9.03;100.00
10881;BME280;5493;48.884;8.338;2023-12-22T07:13:49;99442.44;;;8.95;100.00
10881;BME280;5493;48.884;8.338;2023-12-22T07:16:17;99433.31;;;8.96;100.00
10881;BME280;5493;48.884;8.338;2023-12-22T07:18:44;99431.09;;;8.93;100.00
10881;BME280;5493;48.884;8.338;2023-12-22T07:21:16;99432.25;;;8.85;100.00
10881;BME280;5493;48.884;8.338;2023-12-22T07:23:42;99429.41;;;8.80;100.00
10881;BME280;5493;48.884;8.338;2023-12-22T07:26:10;99435.25;;;8.77;100.00
10881;BME280;5493;48.884;8.338;2023-12-22T07:28:36;99405.38;;;8.56;100.00
10881;BME280;5493;48.884;8.338;2023-12-22T07:31:03;99418.75;;;8.74;100.00
10881;BME280;5493;48.884;8.338;2023-12-22T07:33:32;99420.00;;;8.60;100.00
10881;BME280;5493;48.884;8.338;2023-12-22T07:35:58;99416.22;;;8.79;100.00
10881;BME280;5493;48.884;8.338;2023-12-22T07:38:25;99423.78;;;8.70;100.00
10881;BME280;5493;48.884;8.338;2023-12-22T07:40:52;99407.78;;;8.75;100.00
10881;BME280;5493;48.884;8.338;2023-12-22T07:43:18;99437.72;;;8.79;100.00
10881;BME280;5493;48.884;8.338;2023-12-22T07:45:45;99426.16;;;8.90;100.00
10881;BME280;5493;48.884;8.338;2023-12-22T07:48:13;99414.56;;;8.78;100.00
10881;BME280;5493;48.884;8.338;2023-12-22T07:50:41;99441.16;;;8.98;100.00
10881;BME280;5493;48.884;8.338;2023-12-22T07:53:08;99443.81;;;8.86;100.00
10881;BME280;5493;48.884;8.338;2023-12-22T07:55:34;99433.91;;;8.98;100.00
10881;BME280;5493;48.884;8.338;2023-12-22T07:58:01;99433.56;;;9.06;100.00
10881;BME280;5493;48.884;8.338;2023-12-22T08:00:28;99464.25;;;9.28;100.00
10881;BME280;5493;48.884;8.338;2023-12-22T08:02:54;99471.38;;;9.11;100.00
10881;BME280;5493;48.884;8.338;2023-12-22T08:05:20;99465.97;;;9.11;100.00
10881;BME280;5493;48.884;8.338;2023-12-22T08:07:48;99481.75;;;9.08;100.00
10881;BME280;5493;48.884;8.338;2023-12-22T08:10:15;99474.84;;;9.12;100.00
10881;BME280;5493;48.884;8.338;2023-12-22T08:12:42;99485.78;;;9.28;100.00
10881;BME280;5493;48.884;8.338;2023-12-22T08:15:09;99494.22;;;9.32;100.00
10881;BME280;5493;48.884;8.338;2023-12-22T08:17:37;99479.69;;;9.21;100.00
10881;BME280;5493;48.884;8.338;2023-12-22T08:20:06;99472.44;;;9.33;100.00
10881;BME280;5493;48.884;8.338;2023-12-22T08:22:35;99489.66;;;9.32;100.00
10881;BME280;5493;48.884;8.338;2023-12-22T08:25:04;99482.41;;;9.33;100.00
10881;BME280;5493;48.884;8.338;2023-12-22T08:27:31;99489.06;;;9.42;100.00
10881;BME280;5493;48.884;8.338;2023-12-22T08:29:57;99489.91;;;9.43;100.00
10881;BME280;5493;48.884;8.338;2023-12-22T08:32:24;99497.00;;;9.37;100.00
10881;BME280;5493;48.884;8.338;2023-12-22T08:34:50;99504.41;;;9.42;100.00
10881;BME280;5493;48.884;8.338;2023-12-22T08:37:17;99494.00;;;9.57;100.00
10881;BME280;5493;48.884;8.338;2023-12-22T08:39:44;99473.19;;;9.64;100.00
10881;BME280;5493;48.884;8.338;2023-12-22T08:42:11;99478.78;;;9.62;100.00
10881;BME280;5493;48.884;8.338;2023-12-22T08:44:38;99496.25;;;9.71;100.00
10881;BME280;5493;48.884;8.338;2023-12-22T08:47:05;99492.59;;;9.66;100.00
10881;BME280;5493;48.884;8.338;2023-12-22T08:49:31;99476.72;;;9.76;100.00
10881;BME280;5493;48.884;8.338;2023-12-22T08:51:57;99468.28;;;9.61;100.00
10881;BME280;5493;48.884;8.338;2023-12-22T08:54:24;99434.22;;;9.66;100.00
10881;BME280;5493;48.884;8.338;2023-12-22T08:56:51;99476.59;;;9.82;100.00
10881;BME280;5493;48.884;8.338;2023-12-22T08:59:19;99482.91;;;9.88;100.00
10881;BME280;5493;48.884;8.338;2023-12-22T09:01:46;99491.56;;;9.78;100.00
10881;BME280;5493;48.884;8.338;2023-12-22T09:04:12;99481.16;;;9.94;100.00
10881;BME280;5493;48.884;8.338;2023-12-22T09:06:49;99480.69;;;9.85;100.00
10881;BME280;5493;48.884;8.338;2023-12-22T09:09:17;99487.34;;;9.82;100.00
10881;BME280;5493;48.884;8.338;2023-12-22T09:11:43;99477.75;;;9.75;100.00
10881;BME280;5493;48.884;8.338;2023-12-22T09:14:10;99481.97;;;9.94;100.00
10881;BME280;5493;48.884;8.338;2023-12-22T09:16:37;99471.56;;;9.86;100.00
10881;BME280;5493;48.884;8.338;2023-12-22T09:19:04;99476.69;;;9.87;100.00
10881;BME280;5493;48.884;8.338;2023-12-22T09:21:30;99485.84;;;9.75;100.00
10881;BME280;5493;48.884;8.338;2023-12-22T09:23:57;99481.63;;;9.91;100.00
10881;BME280;5493;48.884;8.338;2023-12-22T09:26:23;99491.22;;;9.86;100.00
10881;BME280;5493;48.884;8.338;2023-12-22T09:28:50;99489.34;;;9.87;100.00
10881;BME280;5493;48.884;8.338;2023-12-22T09:31:16;99488.19;;;9.83;100.00
10881;BME280;5493;48.884;8.338;2023-12-22T09:33:44;99453.63;;;10.03;100.00
10881;BME280;5493;48.884;8.338;2023-12-22T09:36:11;99478.56;;;9.99;100.00
10881;BME280;5493;48.884;8.338;2023-12-22T09:38:38;99462.06;;;10.07;100.00
10881;BME280;5493;48.884;8.338;2023-12-22T09:41:05;99456.56;;;10.02;100.00
10881;BME280;5493;48.884;8.338;2023-12-22T09:43:34;99462.19;;;10.00;100.00
10881;BME280;5493;48.884;8.338;2023-12-22T09:46:02;99455.84;;;10.18;100.00
10881;BME280;5493;48.884;8.338;2023-12-22T09:48:30;99452.72;;;9.98;100.00
10881;BME280;5493;48.884;8.338;2023-12-22T09:50:59;99457.06;;;9.87;100.00
10881;BME280;5493;48.884;8.338;2023-12-22T09:53:27;99460.06;;;10.02;100.00
10881;BME280;5493;48.884;8.338;2023-12-22T09:55:57;99454.56;;;10.09;100.00
10881;BME280;5493;48.884;8.338;2023-12-22T09:58:24;99479.25;;;10.06;100.00
10881;BME280;5493;48.884;8.338;2023-12-22T10:00:51;99460.53;;;10.11;100.00
10881;BME280;5493;48.884;8.338;2023-12-22T10:03:19;99472.59;;;9.97;100.00
10881;BME280;5493;48.884;8.338;2023-12-22T10:05:46;99463.81;;;9.89;100.00
10881;BME280;5493;48.884;8.338;2023-12-22T10:08:15;99475.16;;;9.92;100.00
10881;BME280;5493;48.884;8.338;2023-12-22T10:10:46;99482.91;;;10.00;100.00
10881;BME280;5493;48.884;8.338;2023-12-22T10:13:13;99491.09;;;9.93;100.00
10881;BME280;5493;48.884;8.338;2023-12-22T10:15:40;99480.22;;;9.76;100.00
10881;BME280;5493;48.884;8.338;2023-12-22T10:18:07;99485.00;;;9.51;100.00
10881;BME280;5493;48.884;8.338;2023-12-22T10:20:34;99484.28;;;9.56;100.00
10881;BME280;5493;48.884;8.338;2023-12-22T10:23:01;99480.66;;;9.38;100.00
10881;BME280;5493;48.884;8.338;2023-12-22T10:25:29;99459.06;;;9.04;100.00
10881;BME280;5493;48.884;8.338;2023-12-22T10:27:57;99492.66;;;9.24;100.00
10881;BME280;5493;48.884;8.338;2023-12-22T10:30:24;99464.00;;;9.18;100.00
10881;BME280;5493;48.884;8.338;2023-12-22T10:32:51;99483.41;;;9.20;100.00
10881;BME280;5493;48.884;8.338;2023-12-22T10:35:19;99476.03;;;9.16;100.00
10881;BME280;5493;48.884;8.338;2023-12-22T10:37:46;99481.34;;;9.22;100.00
10881;BME280;5493;48.884;8.338;2023-12-22T10:40:13;99483.56;;;8.96;100.00
10881;BME280;5493;48.884;8.338;2023-12-22T10:42:41;99466.97;;;8.99;100.00
10881;BME280;5493;48.884;8.338;2023-12-22T10:45:08;99467.50;;;9.19;100.00
10881;BME280;5493;48.884;8.338;2023-12-22T10:47:35;99471.28;;;9.29;100.00
10881;BME280;5493;48.884;8.338;2023-12-22T10:50:02;99474.41;;;9.15;100.00
10881;BME280;5493;48.884;8.338;2023-12-22T10:52:29;99457.47;;;9.14;100.00
10881;BME280;5493;48.884;8.338;2023-12-22T10:54:57;99449.34;;;9.03;100.00
10881;BME280;5493;48.884;8.338;2023-12-22T10:57:23;99457.31;;;9.09;100.00
10881;BME280;5493;48.884;8.338;2023-12-22T10:59:52;99441.31;;;9.14;100.00
10881;BME280;5493;48.884;8.338;2023-12-22T11:02:19;99463.03;;;9.13;100.00
10881;BME280;5493;48.884;8.338;2023-12-22T11:04:52;99453.53;;;9.40;100.00
10881;BME280;5493;48.884;8.338;2023-12-22T11:07:23;99446.63;;;9.32;100.00
10881;BME280;5493;48.884;8.338;2023-12-22T11:09:51;99447.63;;;9.20;100.00
10881;BME280;5493;48.884;8.338;2023-12-22T11:12:19;99449.25;;;9.09;100.00
10881;BME280;5493;48.884;8.338;2023-12-22T11:14:46;99443.50;;;9.06;100.00
10881;BME280;5493;48.884;8.338;2023-12-22T11:17:19;99442.50;;;9.18;100.00
10881;BME280;5493;48.884;8.338;2023-12-22T11:19:48;99432.94;;;9.22;100.00
10881;BME280;5493;48.884;8.338;2023-12-22T11:22:16;99445.19;;;9.30;100.00
10881;BME280;5493;48.884;8.338;2023-12-22T11:24:45;99437.34;;;9.17;100.00
10881;BME280;5493;48.884;8.338;2023-12-22T11:27:12;99433.50;;;9.24;100.00
10881;BME280;5493;48.884;8.338;2023-12-22T11:29:40;99428.94;;;9.25;100.00
10881;BME280;5493;48.884;8.338;2023-12-22T11:32:08;99407.41;;;9.13;100.00
10881;BME280;5493;48.884;8.338;2023-12-22T11:34:39;99420.97;;;9.30;100.00
10881;BME280;5493;48.884;8.338;2023-12-22T11:37:08;99415.59;;;9.07;100.00
10881;BME280;5493;48.884;8.338;2023-12-22T11:39:36;99382.03;;;9.21;100.00
10881;BME280;5493;48.884;8.338;2023-12-22T11:42:04;99376.97;;;8.89;100.00
10881;BME280;5493;48.884;8.338;2023-12-22T11:44:31;99393.47;;;8.93;100.00
10881;BME280;5493;48.884;8.338;2023-12-22T11:47:06;99381.81;;;9.11;100.00
10881;BME280;5493;48.884;8.338;2023-12-22T11:49:33;99379.31;;;8.86;100.00
10881;BME280;5493;48.884;8.338;2023-12-22T11:52:09;99378.28;;;8.99;100.00
10881;BME280;5493;48.884;8.338;2023-12-22T11:54:49;99364.00;;;8.98;100.00
10881;BME280;5493;48.884;8.338;2023-12-22T11:57:29;99371.34;;;8.91;100.00
10881;BME280;5493;48.884;8.338;2023-12-22T11:59:56;99357.81;;;9.09;100.00
10881;BME280;5493;48.884;8.338;2023-12-22T12:02:23;99353.81;;;8.77;100.00
10881;BME280;5493;48.884;8.338;2023-12-22T12:04:50;99340.13;;;8.67;100.00
10881;BME280;5493;48.884;8.338;2023-12-22T12:07:38;99333.72;;;8.68;100.00
10881;BME280;5493;48.884;8.338;2023-12-22T12:10:06;99349.03;;;8.79;100.00
10881;BME280;5493;48.884;8.338;2023-12-22T12:12:33;99338.03;;;8.80;100.00
10881;BME280;5493;48.884;8.338;2023-12-22T12:15:06;99327.72;;;8.66;100.00
10881;BME280;5493;48.884;8.338;2023-12-22T12:17:37;99305.50;;;8.59;100.00
10881;BME280;5493;48.884;8.338;2023-12-22T12:20:06;99315.59;;;8.75;100.00
10881;BME280;5493;48.884;8.338;2023-12-22T12:22:33;99291.25;;;8.58;100.00
10881;BME280;5493;48.884;8.338;2023-12-22T12:25:01;99312.13;;;8.86;100.00
10881;BME280;5493;48.884;8.338;2023-12-22T12:27:28;99311.28;;;8.74;100.00
10881;BME280;5493;48.884;8.338;2023-12-22T12:29:54;99262.78;;;8.69;100.00
10881;BME280;5493;48.884;8.338;2023-12-22T12:32:23;99287.44;;;8.66;100.00
10881;BME280;5493;48.884;8.338;2023-12-22T12:34:49;99293.50;;;8.73;100.00
10881;BME280;5493;48.884;8.338;2023-12-22T12:37:18;99282.97;;;8.60;100.00
10881;BME280;5493;48.884;8.338;2023-12-22T12:39:46;99292.78;;;8.66;100.00
10881;BME280;5493;48.884;8.338;2023-12-22T12:42:15;99286.13;;;8.68;100.00
10881;BME280;5493;48.884;8.338;2023-12-22T12:44:43;99289.31;;;8.77;100.00
10881;BME280;5493;48.884;8.338;2023-12-22T12:47:14;99303.44;;;8.72;100.00
10881;BME280;5493;48.884;8.338;2023-12-22T12:49:40;99306.50;;;8.87;100.00
10881;BME280;5493;48.884;8.338;2023-12-22T12:52:12;99303.69;;;8.82;100.00
10881;BME280;5493;48.884;8.338;2023-12-22T12:54:39;99297.38;;;8.77;100.00
10881;BME280;5493;48.884;8.338;2023-12-22T12:57:06;99320.16;;;8.98;100.00
10881;BME280;5493;48.884;8.338;2023-12-22T12:59:34;99310.94;;;8.82;100.00
10881;BME280;5493;48.884;8.338;2023-12-22T13:02:00;99303.56;;;8.77;100.00
10881;BME280;5493;48.884;8.338;2023-12-22T13:04:36;99300.53;;;8.85;100.00
10881;BME280;5493;48.884;8.338;2023-12-22T13:07:03;99302.53;;;8.78;100.00
10881;BME280;5493;48.884;8.338;2023-12-22T13:09:31;99306.75;;;8.86;100.00
10881;BME280;5493;48.884;8.338;2023-12-22T13:11:58;99313.38;;;8.83;100.00